KAZO

Kalamazoo / Battle Creek International Airport

Kalamazoo, Michigan, USA
METAR KAZO 092153Z 31004KT 10SM SCT020 M02/M06 A3029 RMK AO2 SLP273 T10221056
Observed Flight Rules
Dec-9 @ 21:53 UTC (25 minutes ago) Visual Flight Rules
Wind Visibility Clouds
310° at 4 knots 10 miles
  • Scattered at 2,000' AGL
Temperatures Readings
Current -2°C / 28°F
Dewpoint -6°C / 21°F
Humidity 74%
Altimeter 30.29" Hg
Pressure 1027.3 hPa
Elevation 272
METAR KAZO 092153Z 31004KT 10SM SCT020 M02/M06 A3029 RMK AO2 SLP273 T10221056
Observed Flight Rules
Dec-9 @ 21:53 UTC
(25 minutes ago)
VFR
Wind Visibility
310° at 4 knots 10 miles
Clouds
  • Scattered at 2,000' AGL
Temperature Dewpoint
-2°C / 28°F -6°C / 21°F
Humidity Altimeter Pressure
74% 30.29" Hg 1027.3 hPa